Time;durP1;ratioP1;P1;durP2;ratioP2;P2;SDS_P1;SDS_P2;PMS_P1;PMS_P2;Temp;Humidity;BMP_temperature;BMP_pressure;BME280_temperature;BME280_humidity;BME280_pressure;Samples;Min_cycle;Max_cycle;Signal;HPM_P1;HPM_P2
2021/11/18 00:01:52;;;;;;;23.50;13.05;;;5.70;99.90;;;;;;5110703;28;20024;-67
2021/11/18 00:04:19;;;;;;;29.63;14.52;;;5.70;99.90;;;;;;5110650;28;20364;-68
2021/11/18 00:06:48;;;;;;;27.38;14.00;;;5.70;99.90;;;;;;5091502;28;20016;-68
2021/11/18 00:09:16;;;;;;;22.33;12.88;;;5.70;99.90;;;;;;5110002;28;20145;-67
2021/11/18 00:11:41;;;;;;;25.25;12.60;;;5.70;99.90;;;;;;5111700;28;20027;-66
2021/11/18 00:14:07;;;;;;;25.08;13.07;;;5.70;99.90;;;;;;5106281;28;20459;-67
2021/11/18 00:16:34;;;;;;;26.25;13.70;;;5.70;99.90;;;;;;5111693;28;20148;-67
2021/11/18 00:18:59;;;;;;;24.27;13.38;;;5.70;99.90;;;;;;5111256;28;20032;-67
2021/11/18 00:21:31;;;;;;;25.88;13.50;;;5.70;99.90;;;;;;5111719;28;20031;-67
2021/11/18 00:23:58;;;;;;;27.90;13.85;;;5.80;99.90;;;;;;5110949;28;20030;-68
2021/11/18 00:26:27;;;;;;;25.67;14.25;;;5.70;99.90;;;;;;5111526;28;20028;-67
2021/11/18 00:28:52;;;;;;;25.73;13.80;;;5.80;99.90;;;;;;5111813;28;20060;-66
2021/11/18 00:31:30;;;;;;;26.63;14.40;;;5.80;99.90;;;;;;5111717;28;20055;-67
2021/11/18 00:33:57;;;;;;;25.27;13.73;;;5.80;99.90;;;;;;5110562;28;20035;-67
2021/11/18 00:36:23;;;;;;;28.67;13.63;;;5.80;99.90;;;;;;5111673;28;20027;-67
2021/11/18 00:38:48;;;;;;;22.85;12.68;;;5.80;99.90;;;;;;5110779;28;20038;-66
2021/11/18 00:41:16;;;;;;;24.67;13.85;;;5.80;99.90;;;;;;5111472;28;20102;-67
2021/11/18 00:43:43;;;;;;;25.17;14.07;;;5.80;99.90;;;;;;5081974;28;20097;-68
2021/11/18 00:46:09;;;;;;;21.40;13.18;;;5.80;99.90;;;;;;5102304;28;20020;-67
2021/11/18 00:48:34;;;;;;;30.20;14.48;;;5.80;99.90;;;;;;5100216;28;20074;-65
2021/11/18 00:51:13;;;;;;;24.45;13.30;;;5.80;99.90;;;;;;5110796;28;20031;-66
2021/11/18 00:53:43;;;;;;;27.38;14.20;;;5.80;99.90;;;;;;5110515;28;20122;-65
2021/11/18 00:56:10;;;;;;;23.67;13.10;;;5.80;99.90;;;;;;5098931;28;20023;-66
2021/11/18 00:58:35;;;;;;;29.83;13.82;;;5.80;99.90;;;;;;5111252;28;20028;-70
2021/11/18 01:01:03;;;;;;;24.35;13.93;;;5.80;99.90;;;;;;5110870;28;20328;-66
2021/11/18 01:03:30;;;;;;;25.08;13.40;;;5.80;99.90;;;;;;5108400;28;20467;-69
2021/11/18 01:05:56;;;;;;;25.52;13.48;;;5.80;99.90;;;;;;5092372;28;20028;-70
2021/11/18 01:08:23;;;;;;;26.30;13.60;;;5.80;99.90;;;;;;5110434;28;20030;-68
2021/11/18 01:11:05;;;;;;;26.92;13.25;;;5.80;99.90;;;;;;5111178;28;20475;-67
2021/11/18 01:13:32;;;;;;;27.20;14.45;;;5.80;99.90;;;;;;5108834;28;20425;-67
2021/11/18 01:16:00;;;;;;;30.17;14.02;;;5.80;99.90;;;;;;5097071;28;20039;-69
2021/11/18 01:18:26;;;;;;;28.60;14.63;;;5.80;99.90;;;;;;5110512;28;20636;-66
2021/11/18 01:20:52;;;;;;;25.27;13.73;;;5.70;99.90;;;;;;5109940;28;20033;-66
2021/11/18 01:23:23;;;;;;;24.10;13.10;;;5.80;99.90;;;;;;5109682;28;20452;-69
2021/11/18 01:25:49;;;;;;;30.25;14.30;;;5.80;99.90;;;;;;5110772;28;20130;-67
2021/11/18 01:28:15;;;;;;;25.15;12.88;;;5.80;99.90;;;;;;5110184;28;20099;-68
2021/11/18 01:30:42;;;;;;;24.73;13.50;;;5.80;99.90;;;;;;5110866;28;20128;-67
2021/11/18 01:33:12;;;;;;;25.23;13.23;;;5.80;99.90;;;;;;5109222;28;20685;-66
2021/11/18 01:35:39;;;;;;;26.42;13.75;;;5.80;99.90;;;;;;5110729;28;20499;-67
2021/11/18 01:38:05;;;;;;;23.52;13.20;;;5.90;99.90;;;;;;5108662;28;20115;-67
2021/11/18 01:40:34;;;;;;;23.20;13.27;;;5.90;99.90;;;;;;5110009;28;20164;-69
2021/11/18 01:43:01;;;;;;;28.23;13.77;;;5.90;99.90;;;;;;5097810;28;20471;-67
2021/11/18 01:45:29;;;;;;;30.35;14.18;;;5.90;99.90;;;;;;5104093;28;20107;-66
2021/11/18 01:47:55;;;;;;;22.35;12.73;;;5.90;99.90;;;;;;5094386;28;20115;-69
2021/11/18 01:50:23;;;;;;;22.90;13.30;;;5.90;99.90;;;;;;5098470;28;20127;-67
2021/11/18 01:52:50;;;;;;;29.77;14.70;;;5.90;99.90;;;;;;5098098;28;20111;-67
2021/11/18 01:55:20;;;;;;;23.83;13.10;;;5.90;99.90;;;;;;5110116;28;20031;-67
2021/11/18 01:57:46;;;;;;;25.60;12.57;;;5.90;99.90;;;;;;5109533;28;20440;-67
2021/11/18 02:00:27;;;;;;;24.92;12.95;;;5.90;99.90;;;;;;5096902;28;20440;-66
2021/11/18 02:02:53;;;;;;;24.63;13.10;;;5.80;99.90;;;;;;5107967;28;20032;-68
2021/11/18 02:05:25;;;;;;;25.10;13.00;;;5.90;99.90;;;;;;5109960;28;20383;-66
2021/11/18 02:07:52;;;;;;;24.25;13.50;;;5.90;99.90;;;;;;5109453;28;20035;-66
2021/11/18 02:10:23;;;;;;;24.95;12.90;;;5.80;99.90;;;;;;5109852;28;20031;-67
2021/11/18 02:12:49;;;;;;;30.05;13.02;;;5.80;99.90;;;;;;5108463;28;20063;-67
2021/11/18 02:15:41;;;;;;;32.40;14.65;;;5.80;99.90;;;;;;5109465;28;20139;-66
2021/11/18 02:18:23;;;;;;;25.13;13.10;;;5.80;99.90;;;;;;5110185;28;20057;-66
2021/11/18 02:20:52;;;;;;;25.88;13.70;;;5.80;99.90;;;;;;5109118;28;20028;-66
2021/11/18 02:23:21;;;;;;;26.30;13.82;;;5.80;99.90;;;;;;5107195;28;20050;-68
2021/11/18 02:25:50;;;;;;;22.50;13.23;;;5.80;99.90;;;;;;5109589;28;20028;-66
2021/11/18 02:28:18;;;;;;;28.67;12.75;;;5.80;99.90;;;;;;5107601;28;20015;-66
2021/11/18 02:30:44;;;;;;;23.02;13.27;;;5.80;99.90;;;;;;5110348;28;20062;-68
2021/11/18 02:33:10;;;;;;;21.23;12.25;;;5.90;99.90;;;;;;5110703;28;20039;-66
2021/11/18 02:35:38;;;;;;;25.58;14.48;;;5.80;99.90;;;;;;5113914;28;20064;-70
2021/11/18 02:38:04;;;;;;;27.25;13.43;;;5.90;99.90;;;;;;5113536;28;20092;-70
2021/11/18 02:40:30;;;;;;;26.77;13.65;;;5.90;99.90;;;;;;5113095;28;20442;-70
2021/11/18 02:42:58;;;;;;;26.88;14.07;;;5.90;99.90;;;;;;5112230;28;20035;-70
2021/11/18 02:45:27;;;;;;;24.27;13.00;;;5.90;99.90;;;;;;5112558;28;20028;-69
2021/11/18 02:47:55;;;;;;;27.00;13.30;;;5.90;99.90;;;;;;5113954;28;20028;-67
2021/11/18 02:50:24;;;;;;;26.83;13.30;;;5.90;99.90;;;;;;5113487;28;20026;-70
2021/11/18 02:52:50;;;;;;;30.40;13.65;;;5.90;99.90;;;;;;5112656;28;20118;-66
2021/11/18 02:55:19;;;;;;;24.45;13.55;;;5.90;99.90;;;;;;5114510;28;20078;-66
2021/11/18 02:57:45;;;;;;;26.00;13.52;;;5.80;99.90;;;;;;5110607;28;20484;-69
2021/11/18 03:00:15;;;;;;;31.80;14.30;;;5.90;99.90;;;;;;5113353;28;20034;-70
2021/11/18 03:02:41;;;;;;;31.10;13.88;;;5.80;99.90;;;;;;5110520;28;20524;-70
2021/11/18 03:05:08;;;;;;;31.35;13.60;;;5.80;99.90;;;;;;5112757;28;20028;-66
2021/11/18 03:07:33;;;;;;;27.30;14.10;;;5.80;99.90;;;;;;5112980;28;20154;-67
2021/11/18 03:10:00;;;;;;;29.85;13.93;;;5.80;99.90;;;;;;5113041;28;20073;-68
2021/11/18 03:12:25;;;;;;;26.85;13.30;;;5.80;99.90;;;;;;5113331;28;20035;-67
2021/11/18 03:14:51;;;;;;;28.25;14.07;;;5.80;99.90;;;;;;5103846;28;20039;-68
2021/11/18 03:17:18;;;;;;;32.72;14.52;;;5.80;99.90;;;;;;5101074;28;20027;-66
2021/11/18 03:19:44;;;;;;;29.70;13.85;;;5.80;99.90;;;;;;5109361;28;20088;-67
2021/11/18 03:22:11;;;;;;;25.67;13.52;;;5.80;99.90;;;;;;5112219;28;20023;-68
2021/11/18 03:24:36;;;;;;;27.23;14.02;;;5.80;99.90;;;;;;5112322;28;20038;-66
2021/11/18 03:27:02;;;;;;;25.25;13.38;;;5.80;99.90;;;;;;5113486;28;20379;-67
2021/11/18 03:29:28;;;;;;;27.98;14.38;;;5.80;99.90;;;;;;5112246;28;20027;-67
2021/11/18 03:31:54;;;;;;;30.35;14.40;;;5.80;99.90;;;;;;5112890;28;20115;-65
2021/11/18 03:34:24;;;;;;;33.95;14.32;;;5.80;99.90;;;;;;5111964;28;20102;-65
2021/11/18 03:36:50;;;;;;;28.65;14.35;;;5.80;99.90;;;;;;5112609;28;20042;-65
2021/11/18 03:39:16;;;;;;;35.97;15.52;;;5.80;99.90;;;;;;5111719;28;20027;-68
2021/11/18 03:41:45;;;;;;;31.95;14.68;;;5.80;99.90;;;;;;5112379;28;20031;-65
2021/11/18 03:44:12;;;;;;;37.00;15.13;;;5.80;99.90;;;;;;5104334;28;20481;-64
2021/11/18 03:46:45;;;;;;;32.45;14.82;;;5.80;99.90;;;;;;5092039;28;20202;-65
2021/11/18 03:49:12;;;;;;;35.60;15.18;;;5.80;99.90;;;;;;5096394;28;20020;-65
2021/11/18 03:51:38;;;;;;;30.48;15.35;;;5.80;99.90;;;;;;5111979;28;20591;-64
2021/11/18 03:54:07;;;;;;;40.88;16.58;;;5.80;99.90;;;;;;5110287;28;20046;-68
2021/11/18 03:56:39;;;;;;;40.97;16.48;;;5.80;99.90;;;;;;5112785;28;20045;-65
2021/11/18 03:59:07;;;;;;;44.35;16.80;;;5.80;99.90;;;;;;5111261;28;20380;-66
2021/11/18 04:01:35;;;;;;;37.92;15.32;;;5.80;99.90;;;;;;5112341;28;20050;-65
2021/11/18 04:04:02;;;;;;;38.42;16.63;;;5.70;99.90;;;;;;5108928;28;20047;-66
2021/11/18 04:06:27;;;;;;;41.30;16.23;;;5.80;99.90;;;;;;5111442;28;20028;-65
2021/11/18 04:08:53;;;;;;;39.90;15.57;;;5.80;99.90;;;;;;5111791;28;20113;-66
2021/11/18 04:11:18;;;;;;;37.13;15.02;;;5.80;99.90;;;;;;5112252;28;20506;-67
2021/11/18 04:13:44;;;;;;;45.15;17.27;;;5.90;99.90;;;;;;5102617;28;20139;-67
2021/11/18 04:16:10;;;;;;;38.45;15.93;;;5.90;99.90;;;;;;5099049;28;20028;-66
2021/11/18 04:18:35;;;;;;;40.15;15.95;;;5.90;99.90;;;;;;5102415;28;20042;-66
2021/11/18 04:21:02;;;;;;;41.83;16.60;;;5.90;99.90;;;;;;5112029;28;20023;-66
2021/11/18 04:23:27;;;;;;;40.53;13.98;;;5.90;99.90;;;;;;5111402;28;20476;-65
2021/11/18 04:25:53;;;;;;;40.38;16.00;;;5.90;99.90;;;;;;5112140;28;20039;-66
2021/11/18 04:28:20;;;;;;;38.47;15.80;;;5.90;99.90;;;;;;5111382;28;20032;-66
2021/11/18 04:31:02;;;;;;;36.33;15.93;;;5.90;99.90;;;;;;5111509;28;20348;-67
2021/11/18 04:33:30;;;;;;;40.13;16.35;;;5.90;99.90;;;;;;5110893;28;20028;-66
2021/11/18 04:35:57;;;;;;;37.35;15.73;;;6.00;99.90;;;;;;5109728;28;20027;-66
2021/11/18 04:38:23;;;;;;;44.80;16.67;;;5.90;99.90;;;;;;5111783;28;20019;-66
2021/11/18 04:40:49;;;;;;;39.05;16.08;;;6.00;99.90;;;;;;5110397;28;20043;-64
2021/11/18 04:43:16;;;;;;;33.75;15.35;;;5.90;99.90;;;;;;5098845;22;20085;-87
2021/11/18 04:45:42;;;;;;;41.83;15.68;;;6.00;99.90;;;;;;5007393;28;20080;-87
2021/11/18 04:48:07;;;;;;;37.70;15.75;;;6.00;99.90;;;;;;5007228;28;20032;-87
2021/11/18 04:50:35;;;;;;;35.88;15.52;;;6.00;99.90;;;;;;5005219;28;20034;-87
2021/11/18 04:53:00;;;;;;;43.50;17.42;;;6.00;99.90;;;;;;4995055;28;20026;-87
2021/11/18 04:55:28;;;;;;;37.88;16.08;;;6.00;99.90;;;;;;5006630;28;20402;-87
2021/11/18 04:57:53;;;;;;;40.17;15.85;;;6.00;99.90;;;;;;5008246;28;20518;-87
2021/11/18 05:00:23;;;;;;;47.75;17.35;;;6.10;99.90;;;;;;5007819;28;20113;-88
2021/11/18 05:02:49;;;;;;;46.17;16.95;;;6.10;99.90;;;;;;5007809;28;20481;-87
2021/11/18 05:05:17;;;;;;;50.13;17.42;;;6.10;99.90;;;;;;4992278;28;20023;-88
2021/11/18 05:07:42;;;;;;;47.28;17.30;;;6.10;99.90;;;;;;4997453;28;20037;-87
2021/11/18 05:10:09;;;;;;;44.75;17.70;;;6.10;99.90;;;;;;4997451;28;20041;-88
2021/11/18 05:12:35;;;;;;;50.63;18.15;;;6.10;99.90;;;;;;5004749;28;20117;-87
2021/11/18 05:15:06;;;;;;;48.63;17.80;;;6.10;99.90;;;;;;4996019;28;20121;-87
2021/11/18 05:17:32;;;;;;;50.53;19.17;;;6.10;99.90;;;;;;4991920;28;20019;-87
2021/11/18 05:19:57;;;;;;;51.17;17.88;;;6.10;99.90;;;;;;4997331;28;20030;-87
2021/11/18 05:22:23;;;;;;;47.40;17.35;;;6.00;99.90;;;;;;4992179;28;20482;-87
2021/11/18 05:24:48;;;;;;;45.70;17.60;;;6.00;99.90;;;;;;4988361;28;20117;-87
2021/11/18 05:27:14;;;;;;;54.70;18.08;;;6.00;99.90;;;;;;5000426;28;20044;-88
2021/11/18 05:29:40;;;;;;;45.38;18.17;;;6.10;99.90;;;;;;4988999;28;20077;-87
2021/11/18 05:32:06;;;;;;;52.90;18.98;;;6.10;99.90;;;;;;4995662;28;20378;-88
2021/11/18 05:34:31;;;;;;;57.28;18.45;;;6.10;99.90;;;;;;5008885;28;20110;-88
2021/11/18 05:36:57;;;;;;;48.22;19.00;;;6.10;99.90;;;;;;5002307;28;20046;-87
2021/11/18 05:39:23;;;;;;;58.03;18.67;;;6.10;99.90;;;;;;5008779;28;20086;-87
2021/11/18 05:41:48;;;;;;;54.38;18.83;;;6.10;99.90;;;;;;4999867;28;20034;-87
2021/11/18 05:44:14;;;;;;;46.63;17.83;;;6.10;99.90;;;;;;5000858;28;20366;-89
2021/11/18 05:46:40;;;;;;;48.95;18.02;;;6.10;99.90;;;;;;4996503;28;20390;-88
2021/11/18 05:49:07;;;;;;;43.80;18.38;;;6.10;99.90;;;;;;4989297;28;20229;-87
2021/11/18 05:51:34;;;;;;;53.70;22.13;;;6.10;99.90;;;;;;5004524;28;20379;-87
2021/11/18 05:54:00;;;;;;;50.75;21.35;;;6.10;99.90;;;;;;4992127;28;20026;-87
2021/11/18 05:56:26;;;;;;;45.35;20.30;;;6.10;99.90;;;;;;5003307;28;20036;-87
2021/11/18 05:58:53;;;;;;;51.75;18.75;;;6.10;99.90;;;;;;5007107;28;20062;-87
2021/11/18 06:01:26;;;;;;;48.85;19.45;;;6.10;99.90;;;;;;5005482;28;20466;-87
2021/11/18 06:03:52;;;;;;;58.45;20.92;;;6.10;99.90;;;;;;4994603;28;20127;-88
2021/11/18 06:06:18;;;;;;;77.18;31.27;;;6.10;99.90;;;;;;4992519;28;20498;-88
2021/11/18 06:08:44;;;;;;;181.77;87.45;;;6.10;99.90;;;;;;4999390;28;20025;-88
2021/11/18 06:11:10;;;;;;;51.67;22.30;;;6.10;99.90;;;;;;5006958;28;20182;-87
2021/11/18 06:13:36;;;;;;;71.05;30.75;;;6.10;99.90;;;;;;4996466;28;22112;-87
2021/11/18 06:16:02;;;;;;;53.50;21.92;;;6.10;99.90;;;;;;5006450;28;20109;-88
2021/11/18 06:18:28;;;;;;;47.55;21.38;;;6.10;99.90;;;;;;5010011;28;20114;-87
2021/11/18 06:20:54;;;;;;;45.83;18.13;;;6.20;99.90;;;;;;4996018;28;20420;-87
2021/11/18 06:23:20;;;;;;;60.75;20.92;;;6.10;99.90;;;;;;4996565;28;20019;-87
2021/11/18 06:25:46;;;;;;;51.75;19.73;;;6.20;99.90;;;;;;5005058;28;20402;-87
2021/11/18 06:28:13;;;;;;;49.80;18.80;;;6.10;99.90;;;;;;5003770;28;20027;-87
2021/11/18 06:30:46;;;;;;;53.17;21.50;;;6.10;99.90;;;;;;5064605;28;20038;-87
2021/11/18 06:33:13;;;;;;;57.00;21.30;;;6.10;99.90;;;;;;5002846;28;20030;-87
2021/11/18 06:35:40;;;;;;;52.95;21.02;;;6.10;99.90;;;;;;5007188;28;20026;-87
2021/11/18 06:38:06;;;;;;;47.15;18.73;;;6.10;99.90;;;;;;5004151;28;20034;-88
2021/11/18 06:40:31;;;;;;;43.10;18.33;;;6.10;99.90;;;;;;4993020;28;20035;-86
2021/11/18 06:42:57;;;;;;;65.10;22.63;;;6.10;99.90;;;;;;4996324;28;20026;-85
2021/11/18 06:45:26;;;;;;;53.92;19.98;;;6.10;99.90;;;;;;5010928;28;20493;-86
2021/11/18 06:47:52;;;;;;;54.35;19.98;;;6.10;99.90;;;;;;5008017;28;20046;-86
2021/11/18 06:50:18;;;;;;;49.63;19.08;;;6.10;99.90;;;;;;4991166;28;20057;-87
2021/11/18 06:52:44;;;;;;;55.67;19.17;;;6.10;99.90;;;;;;4991436;28;20030;-86
2021/11/18 06:55:11;;;;;;;47.53;18.30;;;6.10;99.90;;;;;;4991202;28;20058;-86
2021/11/18 06:57:36;;;;;;;55.92;19.73;;;6.10;99.90;;;;;;4991679;28;20095;-87
2021/11/18 07:00:05;;;;;;;57.97;20.02;;;6.10;99.90;;;;;;4993689;28;20026;-86
2021/11/18 07:02:31;;;;;;;58.95;20.13;;;6.10;99.90;;;;;;5001118;28;20033;-88
2021/11/18 07:04:57;;;;;;;59.33;23.75;;;6.20;99.90;;;;;;4991988;28;20022;-87
2021/11/18 07:07:22;;;;;;;47.40;17.90;;;6.20;99.90;;;;;;5030003;28;20779;-86
2021/11/18 07:09:48;;;;;;;54.58;20.38;;;6.20;99.90;;;;;;5019912;28;20026;-87
2021/11/18 07:12:18;;;;;;;49.75;18.92;;;6.20;99.90;;;;;;5020489;28;20103;-87
2021/11/18 07:14:45;;;;;;;50.80;17.73;;;6.20;99.90;;;;;;5028540;28;20028;-87
2021/11/18 07:17:11;;;;;;;43.67;18.45;;;6.20;99.90;;;;;;4998119;28;20030;-87
2021/11/18 07:19:37;;;;;;;46.92;19.50;;;6.20;99.90;;;;;;5005940;28;20037;-87
2021/11/18 07:22:04;;;;;;;44.63;18.15;;;6.20;99.90;;;;;;5009553;28;20117;-88
2021/11/18 07:24:30;;;;;;;44.22;17.80;;;6.20;99.90;;;;;;4996322;28;20501;-87
2021/11/18 07:26:56;;;;;;;44.03;18.08;;;6.20;99.90;;;;;;4989822;28;20022;-88
2021/11/18 07:29:23;;;;;;;43.58;17.00;;;6.30;99.90;;;;;;4999259;28;20025;-87
2021/11/18 07:31:49;;;;;;;41.80;17.42;;;6.30;99.90;;;;;;5004737;28;20090;-87
2021/11/18 07:34:16;;;;;;;45.42;16.17;;;6.30;99.90;;;;;;5000502;28;20023;-87
2021/11/18 07:36:42;;;;;;;45.60;16.95;;;6.30;99.90;;;;;;4999911;28;20113;-87
2021/11/18 07:39:08;;;;;;;45.72;17.25;;;6.30;99.90;;;;;;4999996;28;20034;-87
2021/11/18 07:41:34;;;;;;;44.08;18.77;;;6.30;99.90;;;;;;4993894;28;20038;-86
2021/11/18 07:44:00;;;;;;;44.30;18.90;;;6.30;99.90;;;;;;5015509;28;20032;-87
2021/11/18 07:46:26;;;;;;;52.85;19.55;;;6.30;99.90;;;;;;5010008;28;20506;-87
2021/11/18 07:48:51;;;;;;;47.45;17.70;;;6.30;99.90;;;;;;5010127;28;20058;-88
2021/11/18 07:51:19;;;;;;;46.10;17.67;;;6.30;99.90;;;;;;5012108;28;20423;-88
2021/11/18 07:53:47;;;;;;;46.00;18.45;;;6.30;99.90;;;;;;5010014;28;20026;-88
2021/11/18 07:56:14;;;;;;;39.75;17.35;;;6.30;99.90;;;;;;5008369;28;20344;-88
2021/11/18 07:58:39;;;;;;;43.60;17.63;;;6.30;99.90;;;;;;5008074;28;20375;-87
2021/11/18 08:01:06;;;;;;;55.40;24.55;;;6.20;99.90;;;;;;5009173;28;20036;-87
2021/11/18 08:03:32;;;;;;;47.15;18.95;;;6.30;99.90;;;;;;4995625;28;20528;-87
2021/11/18 08:06:00;;;;;;;36.78;16.75;;;6.20;99.90;;;;;;5001201;28;20018;-87
2021/11/18 08:08:25;;;;;;;39.53;17.42;;;6.30;99.90;;;;;;5008352;28;20490;-87
2021/11/18 08:10:52;;;;;;;39.47;16.60;;;6.30;99.90;;;;;;5002362;28;20029;-87
2021/11/18 08:13:18;;;;;;;40.42;16.23;;;6.30;99.90;;;;;;4993233;28;20031;-87
2021/11/18 08:15:43;;;;;;;44.45;15.98;;;6.40;99.90;;;;;;4989045;28;20029;-87
2021/11/18 08:18:09;;;;;;;41.03;16.45;;;6.40;99.90;;;;;;5007156;28;20125;-87
2021/11/18 08:20:35;;;;;;;36.85;15.68;;;6.40;99.90;;;;;;4992694;28;20518;-87
2021/11/18 08:23:01;;;;;;;38.50;16.13;;;6.40;99.90;;;;;;5008196;28;20458;-87
2021/11/18 08:25:30;;;;;;;37.30;16.50;;;6.40;99.90;;;;;;5009883;28;20477;-87
2021/11/18 08:27:55;;;;;;;36.22;15.68;;;6.40;99.90;;;;;;5009011;28;20121;-88
2021/11/18 08:30:29;;;;;;;41.80;15.63;;;6.40;99.90;;;;;;5003956;28;20069;-87
2021/11/18 08:32:58;;;;;;;38.40;15.93;;;6.50;99.90;;;;;;5008748;28;20029;-87
2021/11/18 08:35:31;;;;;;;39.50;17.13;;;6.50;99.90;;;;;;4997072;28;20060;-87
2021/11/18 08:37:59;;;;;;;43.42;16.33;;;6.50;99.90;;;;;;5009273;28;20022;-87
2021/11/18 08:40:25;;;;;;;39.95;15.32;;;6.50;99.90;;;;;;5000276;28;20520;-88
2021/11/18 08:42:51;;;;;;;38.50;16.80;;;6.50;99.90;;;;;;5008362;28;20073;-89
2021/11/18 08:45:17;;;;;;;40.80;16.10;;;6.60;99.90;;;;;;5003110;28;20023;-88
2021/11/18 08:47:43;;;;;;;42.47;17.02;;;6.60;99.90;;;;;;5000889;28;20028;-88
2021/11/18 08:50:12;;;;;;;46.67;19.83;;;6.60;99.90;;;;;;5001223;28;20026;-88
2021/11/18 08:52:39;;;;;;;44.72;17.90;;;6.60;99.90;;;;;;4990574;28;20218;-87
2021/11/18 08:55:09;;;;;;;40.42;19.35;;;6.60;99.90;;;;;;4991340;28;20573;-88
2021/11/18 08:57:36;;;;;;;36.00;16.33;;;6.60;99.90;;;;;;5009372;28;20494;-88
2021/11/18 09:00:05;;;;;;;38.75;16.75;;;6.70;99.90;;;;;;5007893;28;20030;-89
2021/11/18 09:02:30;;;;;;;42.30;17.00;;;6.60;99.90;;;;;;5007733;28;20431;-89
2021/11/18 09:04:56;;;;;;;35.08;16.13;;;6.60;99.90;;;;;;5005209;28;20026;-88
2021/11/18 09:07:22;;;;;;;43.00;19.63;;;6.70;99.90;;;;;;5008074;28;20022;-88
2021/11/18 09:09:48;;;;;;;38.50;16.05;;;6.70;99.90;;;;;;5004357;28;20030;-90
2021/11/18 09:12:14;;;;;;;36.10;15.32;;;6.70;99.90;;;;;;5001250;28;20051;-90
2021/11/18 09:14:40;;;;;;;36.58;15.57;;;6.80;99.90;;;;;;4999075;28;20077;-90
2021/11/18 09:17:09;;;;;;;36.05;16.13;;;6.80;99.90;;;;;;5006308;28;20057;-90
2021/11/18 09:19:37;;;;;;;37.45;15.15;;;6.90;99.90;;;;;;5004478;28;20030;-89
2021/11/18 09:22:07;;;;;;;34.35;14.70;;;6.80;99.90;;;;;;5007242;28;20037;-91
2021/11/18 09:25:00;;;;;;;33.78;14.68;;;6.80;99.90;;;;;;5001501;28;20025;-90
2021/11/18 09:27:34;;;;;;;34.25;14.02;;;6.90;99.90;;;;;;4993141;28;20033;-89
2021/11/18 09:30:02;;;;;;;33.42;14.57;;;6.80;99.90;;;;;;5005429;28;20091;-90
2021/11/18 09:32:30;;;;;;;29.00;13.52;;;6.80;99.90;;;;;;4997425;28;20090;-90
2021/11/18 09:34:57;;;;;;;31.10;13.57;;;6.80;99.90;;;;;;5007116;28;20026;-90
2021/11/18 09:37:23;;;;;;;29.40;14.23;;;6.80;99.90;;;;;;5006801;28;20029;-89
2021/11/18 09:39:49;;;;;;;38.08;15.45;;;6.80;99.90;;;;;;4997294;28;20087;-90
2021/11/18 09:42:19;;;;;;;39.92;15.48;;;6.90;99.90;;;;;;5005983;28;20432;-90
2021/11/18 09:45:06;;;;;;;34.00;16.60;;;6.90;99.90;;;;;;5006315;28;20042;-90
2021/11/18 09:47:58;;;;;;;32.20;14.50;;;6.90;99.90;;;;;;5002600;28;20018;-89
2021/11/18 09:50:32;;;;;;;29.02;14.23;;;7.00;99.90;;;;;;5006896;28;20030;-89
2021/11/18 09:53:15;;;;;;;30.02;14.02;;;7.00;99.90;;;;;;5001172;28;20031;-90
2021/11/18 09:55:56;;;;;;;29.40;14.23;;;7.00;99.90;;;;;;5000354;28;20030;-90
2021/11/18 09:58:40;;;;;;;31.20;14.18;;;7.00;99.90;;;;;;4999134;28;20026;-90
2021/11/18 10:01:45;;;;;;;23.55;12.02;;;7.00;99.90;;;;;;4994978;28;20041;-90
2021/11/18 10:04:49;;;;;;;25.40;12.98;;;7.00;99.90;;;;;;5002888;28;20018;-90
2021/11/18 10:07:23;;;;;;;25.48;12.35;;;7.00;99.90;;;;;;5007153;28;20029;-90
2021/11/18 10:10:23;;;;;;;23.65;12.00;;;7.00;99.90;;;;;;5008282;28;20133;-90
2021/11/18 10:13:13;;;;;;;20.35;11.23;;;7.00;99.90;;;;;;4963648;28;20106;-89
2021/11/18 10:15:59;;;;;;;24.02;11.38;;;7.00;99.90;;;;;;4991760;28;20056;-89
2021/11/18 10:18:47;;;;;;;27.23;13.55;;;7.00;99.90;;;;;;5000697;28;20117;-89
2021/11/18 10:21:24;;;;;;;27.38;14.00;;;7.00;99.90;;;;;;4997643;28;20030;-89
2021/11/18 10:23:55;;;;;;;27.05;12.00;;;7.00;99.90;;;;;;4999812;28;20056;-90
2021/11/18 10:26:32;;;;;;;21.65;11.95;;;7.00;99.90;;;;;;5001993;28;20023;-89
2021/11/18 10:29:00;;;;;;;24.60;11.43;;;7.00;99.90;;;;;;5001750;28;20275;-91
2021/11/18 10:32:04;;;;;;;23.15;11.98;;;7.10;99.90;;;;;;4995208;28;20572;-89
2021/11/18 10:34:52;;;;;;;25.30;12.50;;;7.10;99.90;;;;;;5028903;28;20030;-90
2021/11/18 10:37:46;;;;;;;28.55;12.82;;;7.10;99.90;;;;;;4993413;28;20039;-90
2021/11/18 10:40:26;;;;;;;30.33;14.75;;;7.10;99.90;;;;;;4995848;28;20036;-89
2021/11/18 10:45:34;;;;;;;21.10;11.95;;;7.10;99.90;;;;;;5086190;28;20040;-72
2021/11/18 10:48:18;;;;;;;19.95;10.77;;;7.10;99.90;;;;;;5082444;28;20468;-71
2021/11/18 10:50:46;;;;;;;19.67;10.95;;;7.10;99.90;;;;;;5049758;28;20036;-72
2021/11/18 10:53:21;;;;;;;21.90;11.07;;;7.10;99.90;;;;;;5051143;28;20036;-69
2021/11/18 10:56:06;;;;;;;21.70;11.10;;;7.10;99.90;;;;;;5072718;28;20036;-72
2021/11/18 10:58:45;;;;;;;21.63;10.95;;;7.10;99.90;;;;;;5088236;28;20024;-71
2021/11/18 11:01:26;;;;;;;15.45;9.07;;;7.20;99.90;;;;;;5063057;28;20029;-72
2021/11/18 11:03:57;;;;;;;17.67;9.68;;;7.20;99.90;;;;;;5069946;28;20084;-69
2021/11/18 11:06:24;;;;;;;18.60;9.18;;;7.20;99.90;;;;;;5068154;28;20109;-71
2021/11/18 11:09:04;;;;;;;18.15;9.73;;;7.30;99.90;;;;;;5063970;28;20039;-71
2021/11/18 11:11:44;;;;;;;17.00;9.70;;;7.30;99.90;;;;;;5090102;28;20016;-72
2021/11/18 11:14:32;;;;;;;17.45;9.45;;;7.30;99.90;;;;;;5075004;28;20024;-72
2021/11/18 11:17:20;;;;;;;20.50;10.65;;;7.30;99.90;;;;;;5065590;28;20023;-72
2021/11/18 11:20:08;;;;;;;20.98;11.15;;;7.30;99.90;;;;;;5071788;28;20031;-72
2021/11/18 11:22:58;;;;;;;21.88;11.23;;;7.40;99.90;;;;;;5071066;28;20036;-72
2021/11/18 11:26:11;;;;;;;22.52;12.82;;;7.40;99.90;;;;;;5060387;28;20024;-72
2021/11/18 11:29:09;;;;;;;22.92;11.73;;;7.40;99.90;;;;;;5038076;28;20029;-72
2021/11/18 11:32:13;;;;;;;19.10;11.00;;;7.40;99.90;;;;;;5072130;28;20028;-70
2021/11/18 11:34:57;;;;;;;20.13;12.10;;;7.40;99.90;;;;;;5071622;28;20021;-70
2021/11/18 11:37:51;;;;;;;22.45;11.68;;;7.40;99.90;;;;;;5076733;28;20027;-72
2021/11/18 11:40:42;;;;;;;20.83;10.63;;;7.40;99.90;;;;;;5055969;28;20020;-70
2021/11/18 11:43:31;;;;;;;19.35;10.40;;;7.40;99.90;;;;;;5051300;28;20103;-72
2021/11/18 11:46:23;;;;;;;19.55;11.18;;;7.40;99.90;;;;;;4974377;28;20036;-70
2021/11/18 11:49:24;;;;;;;18.48;10.93;;;7.40;99.90;;;;;;4973476;28;20022;-72
2021/11/18 11:52:14;;;;;;;17.08;10.18;;;7.40;99.90;;;;;;4981519;28;20133;-72
2021/11/18 11:55:07;;;;;;;22.08;11.13;;;7.50;99.90;;;;;;4974326;28;20117;-71
2021/11/18 11:57:42;;;;;;;18.67;11.05;;;7.40;99.90;;;;;;4969674;28;20081;-72
2021/11/18 12:00:42;;;;;;;24.08;11.77;;;7.40;99.90;;;;;;4982524;28;20396;-71
2021/11/18 12:03:32;;;;;;;18.98;10.73;;;7.40;99.90;;;;;;4969499;28;20026;-72
2021/11/18 12:06:11;;;;;;;16.75;9.52;;;7.40;99.90;;;;;;4977294;28;20019;-72
2021/11/18 12:09:11;;;;;;;18.90;9.70;;;7.40;99.90;;;;;;4969846;28;20030;-72
2021/11/18 12:12:03;;;;;;;13.75;7.80;;;7.40;99.90;;;;;;4972553;28;20038;-72
2021/11/18 12:14:36;;;;;;;10.80;6.85;;;7.40;99.90;;;;;;4979461;28;20022;-72
2021/11/18 12:17:17;;;;;;;12.27;6.63;;;7.40;99.90;;;;;;4971881;28;20038;-70
2021/11/18 12:19:46;;;;;;;14.27;7.57;;;7.40;99.90;;;;;;4978083;28;20497;-73
2021/11/18 12:22:30;;;;;;;12.63;8.05;;;7.40;99.90;;;;;;4970017;28;20027;-70
2021/11/18 12:25:15;;;;;;;13.10;7.80;;;7.40;99.90;;;;;;4982584;28;20102;-73
2021/11/18 12:28:01;;;;;;;12.88;7.80;;;7.40;99.90;;;;;;5003880;28;20044;-72
2021/11/18 12:30:31;;;;;;;16.95;8.52;;;7.40;99.90;;;;;;4987902;28;20033;-73
2021/11/18 12:33:23;;;;;;;12.63;7.70;;;7.40;99.90;;;;;;4993563;28;20022;-72
2021/11/18 12:36:21;;;;;;;15.90;8.17;;;7.40;99.90;;;;;;4972811;28;20053;-70
2021/11/18 12:38:55;;;;;;;25.98;12.52;;;7.40;99.90;;;;;;4985704;28;20019;-71
2021/11/18 12:41:42;;;;;;;16.10;8.27;;;7.50;99.90;;;;;;4984978;28;20023;-72
2021/11/18 12:44:36;;;;;;;10.88;6.32;;;7.50;99.90;;;;;;4978902;28;20018;-72
2021/11/18 12:47:07;;;;;;;8.73;6.50;;;7.50;99.90;;;;;;4984570;28;20018;-72
2021/11/18 12:49:50;;;;;;;9.48;6.25;;;7.50;99.90;;;;;;4975015;28;20463;-70
2021/11/18 12:52:24;;;;;;;9.25;6.43;;;7.50;99.90;;;;;;4982482;28;20022;-71
2021/11/18 12:55:14;;;;;;;9.32;6.70;;;7.50;99.90;;;;;;4971223;28;20168;-70
2021/11/18 12:57:49;;;;;;;9.95;7.15;;;7.50;99.90;;;;;;4969358;28;20087;-71
2021/11/18 13:00:16;;;;;;;14.25;8.70;;;7.50;99.90;;;;;;4969385;28;20347;-71
2021/11/18 13:02:44;;;;;;;12.63;8.10;;;7.60;99.90;;;;;;4974614;28;20386;-71